sensor_id;sensor_type;location;lat;lon;timestamp;P1;durP1;ratioP1;P2;durP2;ratioP2
43670;SDS011;29267;50.906;7.248;2023-12-22T00:01:05;1.23;;;0.45;;
43670;SDS011;29267;50.906;7.248;2023-12-22T00:03:31;4.57;;;0.55;;
43670;SDS011;29267;50.906;7.248;2023-12-22T00:05:56;3.38;;;0.75;;
43670;SDS011;29267;50.906;7.248;2023-12-22T00:08:22;1.30;;;0.50;;
43670;SDS011;29267;50.906;7.248;2023-12-22T00:10:48;2.58;;;0.80;;
43670;SDS011;29267;50.906;7.248;2023-12-22T00:13:14;5.25;;;0.40;;
43670;SDS011;29267;50.906;7.248;2023-12-22T00:15:40;5.30;;;0.47;;
43670;SDS011;29267;50.906;7.248;2023-12-22T00:18:07;5.40;;;0.68;;
43670;SDS011;29267;50.906;7.248;2023-12-22T00:20:33;1.73;;;0.73;;
43670;SDS011;29267;50.906;7.248;2023-12-22T00:22:58;1.80;;;0.70;;
43670;SDS011;29267;50.906;7.248;2023-12-22T00:25:24;7.00;;;0.88;;
43670;SDS011;29267;50.906;7.248;2023-12-22T00:27:50;1.65;;;0.50;;
43670;SDS011;29267;50.906;7.248;2023-12-22T00:30:15;7.22;;;1.17;;
43670;SDS011;29267;50.906;7.248;2023-12-22T00:32:41;1.75;;;0.80;;
43670;SDS011;29267;50.906;7.248;2023-12-22T00:35:07;4.88;;;1.20;;
43670;SDS011;29267;50.906;7.248;2023-12-22T00:37:33;4.03;;;0.90;;
43670;SDS011;29267;50.906;7.248;2023-12-22T00:39:59;4.75;;;1.55;;
43670;SDS011;29267;50.906;7.248;2023-12-22T00:42:24;3.45;;;0.65;;
43670;SDS011;29267;50.906;7.248;2023-12-22T00:44:51;2.45;;;0.73;;
43670;SDS011;29267;50.906;7.248;2023-12-22T00:47:16;9.40;;;1.05;;
43670;SDS011;29267;50.906;7.248;2023-12-22T00:49:42;9.20;;;1.35;;
43670;SDS011;29267;50.906;7.248;2023-12-22T00:52:08;10.73;;;0.93;;
43670;SDS011;29267;50.906;7.248;2023-12-22T00:54:33;3.08;;;0.85;;
43670;SDS011;29267;50.906;7.248;2023-12-22T00:56:59;6.93;;;1.65;;
43670;SDS011;29267;50.906;7.248;2023-12-22T00:59:25;6.93;;;1.30;;
43670;SDS011;29267;50.906;7.248;2023-12-22T01:01:51;7.05;;;0.90;;
43670;SDS011;29267;50.906;7.248;2023-12-22T01:04:16;10.25;;;1.10;;
43670;SDS011;29267;50.906;7.248;2023-12-22T01:06:42;15.80;;;1.38;;
43670;SDS011;29267;50.906;7.248;2023-12-22T01:09:08;5.15;;;0.70;;
43670;SDS011;29267;50.906;7.248;2023-12-22T01:11:33;6.80;;;1.55;;
43670;SDS011;29267;50.906;7.248;2023-12-22T01:13:59;6.60;;;1.10;;
43670;SDS011;29267;50.906;7.248;2023-12-22T01:16:25;8.23;;;1.00;;
43670;SDS011;29267;50.906;7.248;2023-12-22T01:18:50;8.75;;;1.40;;
43670;SDS011;29267;50.906;7.248;2023-12-22T01:21:16;9.35;;;1.40;;
43670;SDS011;29267;50.906;7.248;2023-12-22T01:23:42;10.15;;;0.95;;
43670;SDS011;29267;50.906;7.248;2023-12-22T01:26:08;6.30;;;1.00;;
43670;SDS011;29267;50.906;7.248;2023-12-22T01:28:34;6.40;;;1.02;;
43670;SDS011;29267;50.906;7.248;2023-12-22T01:31:00;4.78;;;1.00;;
43670;SDS011;29267;50.906;7.248;2023-12-22T01:33:26;4.40;;;0.50;;
43670;SDS011;29267;50.906;7.248;2023-12-22T01:35:51;19.92;;;2.40;;
43670;SDS011;29267;50.906;7.248;2023-12-22T01:38:17;10.40;;;1.88;;
43670;SDS011;29267;50.906;7.248;2023-12-22T01:40:43;13.93;;;2.15;;
43670;SDS011;29267;50.906;7.248;2023-12-22T01:43:09;3.97;;;1.38;;
43670;SDS011;29267;50.906;7.248;2023-12-22T01:45:34;9.25;;;1.20;;
43670;SDS011;29267;50.906;7.248;2023-12-22T01:48:00;13.40;;;1.23;;
43670;SDS011;29267;50.906;7.248;2023-12-22T01:50:27;10.68;;;1.25;;
43670;SDS011;29267;50.906;7.248;2023-12-22T01:52:53;13.82;;;1.33;;
43670;SDS011;29267;50.906;7.248;2023-12-22T01:55:19;8.40;;;1.08;;
43670;SDS011;29267;50.906;7.248;2023-12-22T01:57:46;7.05;;;1.30;;
43670;SDS011;29267;50.906;7.248;2023-12-22T02:00:12;11.73;;;1.45;;
43670;SDS011;29267;50.906;7.248;2023-12-22T02:02:38;9.85;;;1.38;;
43670;SDS011;29267;50.906;7.248;2023-12-22T02:05:07;6.40;;;1.50;;
43670;SDS011;29267;50.906;7.248;2023-12-22T02:07:36;7.60;;;0.80;;
43670;SDS011;29267;50.906;7.248;2023-12-22T02:10:05;4.43;;;1.10;;
43670;SDS011;29267;50.906;7.248;2023-12-22T02:12:32;8.07;;;1.00;;
43670;SDS011;29267;50.906;7.248;2023-12-22T02:14:57;10.20;;;1.17;;
43670;SDS011;29267;50.906;7.248;2023-12-22T02:17:29;17.63;;;1.98;;
43670;SDS011;29267;50.906;7.248;2023-12-22T02:20:08;15.45;;;1.50;;
43670;SDS011;29267;50.906;7.248;2023-12-22T02:22:35;13.25;;;1.38;;
43670;SDS011;29267;50.906;7.248;2023-12-22T02:25:01;8.25;;;1.17;;
43670;SDS011;29267;50.906;7.248;2023-12-22T02:27:38;5.50;;;1.20;;
43670;SDS011;29267;50.906;7.248;2023-12-22T02:33:09;7.88;;;1.23;;
43670;SDS011;29267;50.906;7.248;2023-12-22T02:35:37;11.40;;;1.35;;
43670;SDS011;29267;50.906;7.248;2023-12-22T02:38:06;13.07;;;1.92;;
43670;SDS011;29267;50.906;7.248;2023-12-22T02:40:33;8.18;;;0.98;;
43670;SDS011;29267;50.906;7.248;2023-12-22T02:42:59;13.07;;;1.45;;
43670;SDS011;29267;50.906;7.248;2023-12-22T02:45:27;5.15;;;1.40;;
43670;SDS011;29267;50.906;7.248;2023-12-22T02:47:53;11.10;;;1.73;;
43670;SDS011;29267;50.906;7.248;2023-12-22T02:50:18;14.35;;;1.70;;
43670;SDS011;29267;50.906;7.248;2023-12-22T02:52:44;13.55;;;1.90;;
43670;SDS011;29267;50.906;7.248;2023-12-22T02:55:09;18.80;;;1.60;;
43670;SDS011;29267;50.906;7.248;2023-12-22T02:57:35;11.55;;;1.40;;
43670;SDS011;29267;50.906;7.248;2023-12-22T03:00:01;9.38;;;1.95;;
43670;SDS011;29267;50.906;7.248;2023-12-22T03:02:27;10.98;;;1.50;;
43670;SDS011;29267;50.906;7.248;2023-12-22T03:04:52;12.13;;;1.75;;
43670;SDS011;29267;50.906;7.248;2023-12-22T03:07:18;7.82;;;1.83;;
43670;SDS011;29267;50.906;7.248;2023-12-22T03:09:44;13.30;;;1.85;;
43670;SDS011;29267;50.906;7.248;2023-12-22T03:12:09;6.82;;;1.30;;
43670;SDS011;29267;50.906;7.248;2023-12-22T03:14:36;13.63;;;2.08;;
43670;SDS011;29267;50.906;7.248;2023-12-22T03:17:02;11.70;;;1.63;;
43670;SDS011;29267;50.906;7.248;2023-12-22T03:19:29;13.75;;;2.50;;
43670;SDS011;29267;50.906;7.248;2023-12-22T03:21:55;11.27;;;3.38;;
43670;SDS011;29267;50.906;7.248;2023-12-22T03:24:21;13.73;;;1.90;;
43670;SDS011;29267;50.906;7.248;2023-12-22T03:26:51;9.30;;;1.65;;
43670;SDS011;29267;50.906;7.248;2023-12-22T03:29:17;7.97;;;1.95;;
43670;SDS011;29267;50.906;7.248;2023-12-22T03:31:43;10.20;;;2.10;;
43670;SDS011;29267;50.906;7.248;2023-12-22T03:34:09;14.40;;;2.67;;
43670;SDS011;29267;50.906;7.248;2023-12-22T03:36:35;8.30;;;2.50;;
43670;SDS011;29267;50.906;7.248;2023-12-22T03:39:01;19.90;;;2.92;;
43670;SDS011;29267;50.906;7.248;2023-12-22T03:41:27;26.80;;;3.35;;
43670;SDS011;29267;50.906;7.248;2023-12-22T03:43:54;21.85;;;2.88;;
43670;SDS011;29267;50.906;7.248;2023-12-22T03:46:20;13.65;;;2.80;;
43670;SDS011;29267;50.906;7.248;2023-12-22T03:48:46;10.27;;;2.45;;
43670;SDS011;29267;50.906;7.248;2023-12-22T03:51:11;15.52;;;3.03;;
43670;SDS011;29267;50.906;7.248;2023-12-22T03:53:39;8.95;;;2.60;;
43670;SDS011;29267;50.906;7.248;2023-12-22T03:56:06;16.05;;;2.83;;
43670;SDS011;29267;50.906;7.248;2023-12-22T03:58:32;11.65;;;2.33;;
43670;SDS011;29267;50.906;7.248;2023-12-22T04:00:58;13.77;;;2.65;;
43670;SDS011;29267;50.906;7.248;2023-12-22T04:03:23;23.38;;;2.70;;
43670;SDS011;29267;50.906;7.248;2023-12-22T04:05:49;25.45;;;3.03;;
43670;SDS011;29267;50.906;7.248;2023-12-22T04:08:15;20.02;;;2.83;;
43670;SDS011;29267;50.906;7.248;2023-12-22T04:10:40;16.30;;;2.70;;
43670;SDS011;29267;50.906;7.248;2023-12-22T04:13:06;23.05;;;3.63;;
43670;SDS011;29267;50.906;7.248;2023-12-22T04:15:32;22.65;;;2.42;;
43670;SDS011;29267;50.906;7.248;2023-12-22T04:17:57;16.48;;;2.15;;
43670;SDS011;29267;50.906;7.248;2023-12-22T04:20:23;17.33;;;2.58;;
43670;SDS011;29267;50.906;7.248;2023-12-22T04:22:49;10.55;;;3.10;;
43670;SDS011;29267;50.906;7.248;2023-12-22T04:25:14;15.48;;;2.13;;
43670;SDS011;29267;50.906;7.248;2023-12-22T04:27:41;25.00;;;4.07;;
43670;SDS011;29267;50.906;7.248;2023-12-22T04:30:07;15.52;;;2.05;;
43670;SDS011;29267;50.906;7.248;2023-12-22T04:32:33;19.63;;;1.90;;
43670;SDS011;29267;50.906;7.248;2023-12-22T04:34:58;12.68;;;2.15;;
43670;SDS011;29267;50.906;7.248;2023-12-22T04:37:25;20.30;;;3.25;;
43670;SDS011;29267;50.906;7.248;2023-12-22T04:39:50;27.27;;;2.42;;
43670;SDS011;29267;50.906;7.248;2023-12-22T04:42:16;18.85;;;2.85;;
43670;SDS011;29267;50.906;7.248;2023-12-22T04:44:41;19.15;;;2.63;;
43670;SDS011;29267;50.906;7.248;2023-12-22T04:47:07;12.70;;;2.42;;
43670;SDS011;29267;50.906;7.248;2023-12-22T04:49:33;23.63;;;2.35;;
43670;SDS011;29267;50.906;7.248;2023-12-22T04:51:58;19.48;;;2.35;;
43670;SDS011;29267;50.906;7.248;2023-12-22T04:54:24;18.63;;;3.35;;
43670;SDS011;29267;50.906;7.248;2023-12-22T04:56:49;14.40;;;2.97;;
43670;SDS011;29267;50.906;7.248;2023-12-22T04:59:15;19.90;;;2.17;;
43670;SDS011;29267;50.906;7.248;2023-12-22T05:01:40;20.45;;;4.07;;
43670;SDS011;29267;50.906;7.248;2023-12-22T05:04:07;14.82;;;2.67;;
43670;SDS011;29267;50.906;7.248;2023-12-22T05:06:34;15.68;;;3.35;;
43670;SDS011;29267;50.906;7.248;2023-12-22T05:09:00;21.70;;;3.90;;
43670;SDS011;29267;50.906;7.248;2023-12-22T05:11:25;15.10;;;2.55;;
43670;SDS011;29267;50.906;7.248;2023-12-22T05:13:51;10.25;;;2.28;;
43670;SDS011;29267;50.906;7.248;2023-12-22T05:16:16;15.70;;;3.45;;
43670;SDS011;29267;50.906;7.248;2023-12-22T05:18:42;22.83;;;2.35;;
43670;SDS011;29267;50.906;7.248;2023-12-22T05:21:08;20.35;;;3.42;;
43670;SDS011;29267;50.906;7.248;2023-12-22T05:23:37;17.00;;;2.20;;
43670;SDS011;29267;50.906;7.248;2023-12-22T05:26:03;21.23;;;2.42;;
43670;SDS011;29267;50.906;7.248;2023-12-22T05:28:29;23.90;;;5.10;;
43670;SDS011;29267;50.906;7.248;2023-12-22T05:30:54;17.30;;;2.60;;
43670;SDS011;29267;50.906;7.248;2023-12-22T05:33:20;16.17;;;3.25;;
43670;SDS011;29267;50.906;7.248;2023-12-22T05:35:45;21.42;;;3.00;;
43670;SDS011;29267;50.906;7.248;2023-12-22T05:38:11;20.75;;;3.25;;
43670;SDS011;29267;50.906;7.248;2023-12-22T05:40:36;13.13;;;2.20;;
43670;SDS011;29267;50.906;7.248;2023-12-22T05:43:02;32.63;;;3.63;;
43670;SDS011;29267;50.906;7.248;2023-12-22T05:45:28;14.05;;;2.60;;
43670;SDS011;29267;50.906;7.248;2023-12-22T05:47:53;13.45;;;2.10;;
43670;SDS011;29267;50.906;7.248;2023-12-22T05:50:19;24.38;;;3.38;;
43670;SDS011;29267;50.906;7.248;2023-12-22T05:52:45;18.73;;;2.30;;
43670;SDS011;29267;50.906;7.248;2023-12-22T05:55:10;21.48;;;2.70;;
43670;SDS011;29267;50.906;7.248;2023-12-22T05:57:36;20.98;;;2.20;;
43670;SDS011;29267;50.906;7.248;2023-12-22T06:00:05;18.30;;;3.38;;
43670;SDS011;29267;50.906;7.248;2023-12-22T06:02:32;14.60;;;2.17;;
43670;SDS011;29267;50.906;7.248;2023-12-22T06:04:58;20.65;;;2.28;;
43670;SDS011;29267;50.906;7.248;2023-12-22T06:07:24;22.02;;;2.58;;
43670;SDS011;29267;50.906;7.248;2023-12-22T06:09:50;31.58;;;2.22;;
43670;SDS011;29267;50.906;7.248;2023-12-22T06:12:16;11.25;;;2.55;;
43670;SDS011;29267;50.906;7.248;2023-12-22T06:14:42;22.17;;;2.78;;
43670;SDS011;29267;50.906;7.248;2023-12-22T06:17:07;26.33;;;3.10;;
43670;SDS011;29267;50.906;7.248;2023-12-22T06:19:35;14.63;;;2.85;;
43670;SDS011;29267;50.906;7.248;2023-12-22T06:22:00;18.92;;;2.13;;
43670;SDS011;29267;50.906;7.248;2023-12-22T06:24:26;11.52;;;1.73;;
43670;SDS011;29267;50.906;7.248;2023-12-22T06:26:52;22.92;;;2.95;;
43670;SDS011;29267;50.906;7.248;2023-12-22T06:29:18;15.18;;;1.85;;
43670;SDS011;29267;50.906;7.248;2023-12-22T06:31:43;12.05;;;3.13;;
43670;SDS011;29267;50.906;7.248;2023-12-22T06:34:09;10.05;;;2.25;;
43670;SDS011;29267;50.906;7.248;2023-12-22T06:36:34;14.63;;;3.20;;
43670;SDS011;29267;50.906;7.248;2023-12-22T06:39:00;11.00;;;2.40;;
43670;SDS011;29267;50.906;7.248;2023-12-22T06:41:26;18.27;;;3.22;;
43670;SDS011;29267;50.906;7.248;2023-12-22T06:43:53;18.85;;;2.65;;
43670;SDS011;29267;50.906;7.248;2023-12-22T06:46:23;24.20;;;2.40;;
43670;SDS011;29267;50.906;7.248;2023-12-22T06:48:53;23.58;;;2.67;;
43670;SDS011;29267;50.906;7.248;2023-12-22T06:51:29;10.93;;;2.22;;
43670;SDS011;29267;50.906;7.248;2023-12-22T06:53:57;10.90;;;2.78;;
43670;SDS011;29267;50.906;7.248;2023-12-22T06:56:25;17.17;;;2.70;;
43670;SDS011;29267;50.906;7.248;2023-12-22T06:58:52;22.70;;;3.88;;
43670;SDS011;29267;50.906;7.248;2023-12-22T07:01:19;24.80;;;3.38;;
43670;SDS011;29267;50.906;7.248;2023-12-22T07:03:48;24.52;;;3.13;;
43670;SDS011;29267;50.906;7.248;2023-12-22T07:06:15;20.63;;;2.53;;
43670;SDS011;29267;50.906;7.248;2023-12-22T07:08:41;22.65;;;2.58;;
43670;SDS011;29267;50.906;7.248;2023-12-22T07:11:08;18.45;;;2.88;;
43670;SDS011;29267;50.906;7.248;2023-12-22T07:13:34;11.38;;;2.15;;
43670;SDS011;29267;50.906;7.248;2023-12-22T07:16:00;14.13;;;2.08;;
43670;SDS011;29267;50.906;7.248;2023-12-22T07:18:27;8.80;;;1.67;;
43670;SDS011;29267;50.906;7.248;2023-12-22T07:20:55;12.68;;;3.13;;
43670;SDS011;29267;50.906;7.248;2023-12-22T07:23:22;9.38;;;2.22;;
43670;SDS011;29267;50.906;7.248;2023-12-22T07:25:47;7.65;;;1.60;;
43670;SDS011;29267;50.906;7.248;2023-12-22T07:28:13;6.60;;;2.50;;
43670;SDS011;29267;50.906;7.248;2023-12-22T07:30:39;8.90;;;2.25;;
43670;SDS011;29267;50.906;7.248;2023-12-22T07:33:05;10.27;;;1.52;;
43670;SDS011;29267;50.906;7.248;2023-12-22T07:35:30;10.80;;;1.73;;
43670;SDS011;29267;50.906;7.248;2023-12-22T07:37:56;7.97;;;2.08;;
43670;SDS011;29267;50.906;7.248;2023-12-22T07:40:21;8.20;;;0.95;;
43670;SDS011;29267;50.906;7.248;2023-12-22T07:42:47;9.68;;;1.67;;
43670;SDS011;29267;50.906;7.248;2023-12-22T07:45:13;11.40;;;1.60;;
43670;SDS011;29267;50.906;7.248;2023-12-22T07:47:38;7.95;;;1.48;;
43670;SDS011;29267;50.906;7.248;2023-12-22T07:50:04;11.13;;;2.30;;
43670;SDS011;29267;50.906;7.248;2023-12-22T07:52:33;12.18;;;2.47;;
43670;SDS011;29267;50.906;7.248;2023-12-22T07:55:02;5.15;;;1.65;;
43670;SDS011;29267;50.906;7.248;2023-12-22T07:57:29;9.85;;;1.20;;
43670;SDS011;29267;50.906;7.248;2023-12-22T07:59:55;6.22;;;1.55;;
43670;SDS011;29267;50.906;7.248;2023-12-22T08:02:21;4.22;;;1.95;;
43670;SDS011;29267;50.906;7.248;2023-12-22T08:04:47;7.43;;;1.60;;
43670;SDS011;29267;50.906;7.248;2023-12-22T08:07:15;5.47;;;1.50;;
43670;SDS011;29267;50.906;7.248;2023-12-22T08:09:41;6.47;;;1.75;;
43670;SDS011;29267;50.906;7.248;2023-12-22T08:12:07;7.35;;;1.38;;
43670;SDS011;29267;50.906;7.248;2023-12-22T08:14:33;14.05;;;4.60;;
43670;SDS011;29267;50.906;7.248;2023-12-22T08:16:59;10.93;;;2.28;;
43670;SDS011;29267;50.906;7.248;2023-12-22T08:19:24;17.58;;;3.80;;
43670;SDS011;29267;50.906;7.248;2023-12-22T08:21:52;17.65;;;4.07;;
43670;SDS011;29267;50.906;7.248;2023-12-22T08:24:18;23.13;;;3.00;;
43670;SDS011;29267;50.906;7.248;2023-12-22T08:26:44;11.63;;;2.25;;
43670;SDS011;29267;50.906;7.248;2023-12-22T08:29:09;22.55;;;3.10;;
43670;SDS011;29267;50.906;7.248;2023-12-22T08:31:35;8.75;;;2.88;;
43670;SDS011;29267;50.906;7.248;2023-12-22T08:34:01;14.55;;;2.70;;
43670;SDS011;29267;50.906;7.248;2023-12-22T08:36:26;21.42;;;3.13;;
43670;SDS011;29267;50.906;7.248;2023-12-22T08:38:52;21.48;;;3.35;;
43670;SDS011;29267;50.906;7.248;2023-12-22T08:41:17;28.02;;;3.35;;
43670;SDS011;29267;50.906;7.248;2023-12-22T08:43:43;16.92;;;3.33;;
43670;SDS011;29267;50.906;7.248;2023-12-22T08:46:09;13.07;;;3.60;;
43670;SDS011;29267;50.906;7.248;2023-12-22T08:48:35;20.70;;;3.40;;
43670;SDS011;29267;50.906;7.248;2023-12-22T08:51:00;24.83;;;2.70;;
43670;SDS011;29267;50.906;7.248;2023-12-22T08:53:26;23.98;;;4.53;;
43670;SDS011;29267;50.906;7.248;2023-12-22T08:55:55;25.73;;;3.88;;
43670;SDS011;29267;50.906;7.248;2023-12-22T08:58:22;27.85;;;4.57;;
43670;SDS011;29267;50.906;7.248;2023-12-22T09:00:48;27.13;;;5.15;;
43670;SDS011;29267;50.906;7.248;2023-12-22T09:03:14;29.63;;;5.20;;
43670;SDS011;29267;50.906;7.248;2023-12-22T09:05:39;12.35;;;3.53;;
43670;SDS011;29267;50.906;7.248;2023-12-22T09:08:05;24.35;;;4.07;;
43670;SDS011;29267;50.906;7.248;2023-12-22T09:10:31;29.25;;;4.40;;
43670;SDS011;29267;50.906;7.248;2023-12-22T09:12:57;25.42;;;4.22;;
43670;SDS011;29267;50.906;7.248;2023-12-22T09:15:23;19.45;;;3.72;;
43670;SDS011;29267;50.906;7.248;2023-12-22T09:17:49;31.88;;;7.20;;
43670;SDS011;29267;50.906;7.248;2023-12-22T09:20:17;26.67;;;4.80;;
43670;SDS011;29267;50.906;7.248;2023-12-22T09:22:43;24.98;;;5.45;;
43670;SDS011;29267;50.906;7.248;2023-12-22T09:25:08;28.15;;;4.15;;
43670;SDS011;29267;50.906;7.248;2023-12-22T09:27:34;18.67;;;3.58;;
43670;SDS011;29267;50.906;7.248;2023-12-22T09:29:59;26.73;;;4.13;;
43670;SDS011;29267;50.906;7.248;2023-12-22T09:32:25;22.02;;;4.30;;
43670;SDS011;29267;50.906;7.248;2023-12-22T09:34:51;37.90;;;5.05;;
43670;SDS011;29267;50.906;7.248;2023-12-22T09:37:17;25.92;;;5.00;;
43670;SDS011;29267;50.906;7.248;2023-12-22T09:39:43;22.98;;;4.03;;
43670;SDS011;29267;50.906;7.248;2023-12-22T09:42:08;30.55;;;4.78;;
43670;SDS011;29267;50.906;7.248;2023-12-22T09:44:34;26.70;;;4.63;;
43670;SDS011;29267;50.906;7.248;2023-12-22T09:47:03;28.30;;;4.50;;
43670;SDS011;29267;50.906;7.248;2023-12-22T09:49:30;29.60;;;4.32;;
43670;SDS011;29267;50.906;7.248;2023-12-22T09:51:58;26.13;;;3.75;;
43670;SDS011;29267;50.906;7.248;2023-12-22T09:54:26;25.27;;;4.00;;
43670;SDS011;29267;50.906;7.248;2023-12-22T09:56:53;23.67;;;3.35;;
43670;SDS011;29267;50.906;7.248;2023-12-22T09:59:19;19.55;;;3.25;;
43670;SDS011;29267;50.906;7.248;2023-12-22T10:01:47;27.92;;;4.10;;
43670;SDS011;29267;50.906;7.248;2023-12-22T10:04:15;18.80;;;3.95;;
43670;SDS011;29267;50.906;7.248;2023-12-22T10:06:41;20.08;;;2.65;;
43670;SDS011;29267;50.906;7.248;2023-12-22T10:09:08;29.50;;;6.13;;
43670;SDS011;29267;50.906;7.248;2023-12-22T10:11:36;26.80;;;4.30;;
43670;SDS011;29267;50.906;7.248;2023-12-22T10:14:03;19.08;;;3.83;;
43670;SDS011;29267;50.906;7.248;2023-12-22T10:16:29;22.95;;;2.72;;
43670;SDS011;29267;50.906;7.248;2023-12-22T10:18:55;19.85;;;3.80;;
43670;SDS011;29267;50.906;7.248;2023-12-22T10:21:21;12.63;;;3.13;;
43670;SDS011;29267;50.906;7.248;2023-12-22T10:23:47;14.23;;;3.45;;
43670;SDS011;29267;50.906;7.248;2023-12-22T10:26:13;12.27;;;3.50;;
43670;SDS011;29267;50.906;7.248;2023-12-22T10:28:40;11.93;;;2.45;;
43670;SDS011;29267;50.906;7.248;2023-12-22T10:31:06;13.15;;;2.97;;
43670;SDS011;29267;50.906;7.248;2023-12-22T10:33:32;14.57;;;2.67;;
43670;SDS011;29267;50.906;7.248;2023-12-22T10:35:58;14.35;;;2.90;;
43670;SDS011;29267;50.906;7.248;2023-12-22T10:38:25;8.18;;;1.92;;
43670;SDS011;29267;50.906;7.248;2023-12-22T10:40:56;12.10;;;2.00;;
43670;SDS011;29267;50.906;7.248;2023-12-22T10:43:22;8.43;;;2.72;;
43670;SDS011;29267;50.906;7.248;2023-12-22T10:45:51;11.57;;;1.88;;
43670;SDS011;29267;50.906;7.248;2023-12-22T10:48:20;10.60;;;1.90;;
43670;SDS011;29267;50.906;7.248;2023-12-22T10:50:46;6.63;;;1.48;;
43670;SDS011;29267;50.906;7.248;2023-12-22T10:53:13;7.32;;;1.73;;
43670;SDS011;29267;50.906;7.248;2023-12-22T10:55:39;15.02;;;3.53;;
43670;SDS011;29267;50.906;7.248;2023-12-22T10:58:05;9.85;;;1.80;;
43670;SDS011;29267;50.906;7.248;2023-12-22T11:00:32;16.45;;;3.22;;
43670;SDS011;29267;50.906;7.248;2023-12-22T11:03:01;11.88;;;3.25;;
43670;SDS011;29267;50.906;7.248;2023-12-22T11:05:28;9.05;;;1.80;;
43670;SDS011;29267;50.906;7.248;2023-12-22T11:07:56;7.43;;;2.35;;
43670;SDS011;29267;50.906;7.248;2023-12-22T11:10:27;3.10;;;1.48;;
43670;SDS011;29267;50.906;7.248;2023-12-22T11:12:54;7.47;;;1.92;;
43670;SDS011;29267;50.906;7.248;2023-12-22T11:15:22;5.70;;;2.13;;
43670;SDS011;29267;50.906;7.248;2023-12-22T11:17:49;5.72;;;2.22;;
43670;SDS011;29267;50.906;7.248;2023-12-22T11:20:16;7.68;;;2.17;;
43670;SDS011;29267;50.906;7.248;2023-12-22T11:22:43;6.70;;;2.33;;
43670;SDS011;29267;50.906;7.248;2023-12-22T11:25:10;7.38;;;2.08;;
43670;SDS011;29267;50.906;7.248;2023-12-22T11:27:36;4.03;;;1.92;;
43670;SDS011;29267;50.906;7.248;2023-12-22T11:30:04;9.60;;;1.90;;
43670;SDS011;29267;50.906;7.248;2023-12-22T11:32:33;8.43;;;2.10;;
43670;SDS011;29267;50.906;7.248;2023-12-22T11:34:59;5.03;;;1.95;;
43670;SDS011;29267;50.906;7.248;2023-12-22T11:37:25;6.22;;;2.53;;
43670;SDS011;29267;50.906;7.248;2023-12-22T11:39:50;6.88;;;1.98;;
43670;SDS011;29267;50.906;7.248;2023-12-22T11:42:25;3.42;;;1.92;;
43670;SDS011;29267;50.906;7.248;2023-12-22T11:44:56;6.60;;;1.98;;
43670;SDS011;29267;50.906;7.248;2023-12-22T11:47:23;5.55;;;2.47;;
43670;SDS011;29267;50.906;7.248;2023-12-22T11:49:49;6.57;;;1.83;;
43670;SDS011;29267;50.906;7.248;2023-12-22T11:52:18;6.68;;;2.13;;
43670;SDS011;29267;50.906;7.248;2023-12-22T11:54:50;4.72;;;2.00;;
43670;SDS011;29267;50.906;7.248;2023-12-22T11:59:56;6.18;;;2.20;;
43670;SDS011;29267;50.906;7.248;2023-12-22T12:02:56;4.35;;;1.70;;
43670;SDS011;29267;50.906;7.248;2023-12-22T12:05:22;5.55;;;1.75;;
43670;SDS011;29267;50.906;7.248;2023-12-22T12:07:48;9.20;;;2.45;;
43670;SDS011;29267;50.906;7.248;2023-12-22T12:13:17;7.75;;;1.88;;
43670;SDS011;29267;50.906;7.248;2023-12-22T12:15:48;6.15;;;1.70;;
43670;SDS011;29267;50.906;7.248;2023-12-22T12:18:16;5.90;;;1.90;;
43670;SDS011;29267;50.906;7.248;2023-12-22T12:20:48;4.07;;;2.08;;
43670;SDS011;29267;50.906;7.248;2023-12-22T12:23:14;4.82;;;2.83;;
43670;SDS011;29267;50.906;7.248;2023-12-22T12:25:41;4.63;;;1.48;;
43670;SDS011;29267;50.906;7.248;2023-12-22T12:28:08;2.80;;;1.42;;
43670;SDS011;29267;50.906;7.248;2023-12-22T12:30:34;4.45;;;1.30;;
43670;SDS011;29267;50.906;7.248;2023-12-22T12:33:11;4.82;;;1.17;;
43670;SDS011;29267;50.906;7.248;2023-12-22T12:35:38;7.63;;;1.73;;
43670;SDS011;29267;50.906;7.248;2023-12-22T12:38:05;3.50;;;1.67;;
43670;SDS011;29267;50.906;7.248;2023-12-22T12:40:31;4.50;;;1.52;;
43670;SDS011;29267;50.906;7.248;2023-12-22T12:42:59;4.45;;;1.40;;
43670;SDS011;29267;50.906;7.248;2023-12-22T12:45:25;5.68;;;1.45;;
43670;SDS011;29267;50.906;7.248;2023-12-22T12:47:58;7.53;;;1.90;;
43670;SDS011;29267;50.906;7.248;2023-12-22T12:50:25;6.70;;;1.30;;
43670;SDS011;29267;50.906;7.248;2023-12-22T12:52:53;2.05;;;1.33;;
43670;SDS011;29267;50.906;7.248;2023-12-22T12:55:20;11.25;;;2.10;;
43670;SDS011;29267;50.906;7.248;2023-12-22T12:57:52;9.20;;;1.85;;
43670;SDS011;29267;50.906;7.248;2023-12-22T13:00:28;4.68;;;1.08;;
43670;SDS011;29267;50.906;7.248;2023-12-22T13:03:01;5.25;;;2.05;;
43670;SDS011;29267;50.906;7.248;2023-12-22T13:05:27;4.32;;;1.60;;
43670;SDS011;29267;50.906;7.248;2023-12-22T13:08:05;4.40;;;1.27;;
43670;SDS011;29267;50.906;7.248;2023-12-22T13:10:40;4.10;;;1.15;;
43670;SDS011;29267;50.906;7.248;2023-12-22T13:13:06;10.27;;;1.63;;
43670;SDS011;29267;50.906;7.248;2023-12-22T13:15:32;4.07;;;1.40;;
43670;SDS011;29267;50.906;7.248;2023-12-22T13:17:58;5.80;;;1.60;;
43670;SDS011;29267;50.906;7.248;2023-12-22T13:20:24;3.78;;;1.42;;
43670;SDS011;29267;50.906;7.248;2023-12-22T13:22:49;3.92;;;1.40;;
43670;SDS011;29267;50.906;7.248;2023-12-22T13:25:15;6.72;;;1.50;;
43670;SDS011;29267;50.906;7.248;2023-12-22T13:27:47;8.00;;;1.60;;
43670;SDS011;29267;50.906;7.248;2023-12-22T13:30:14;3.08;;;0.93;;
43670;SDS011;29267;50.906;7.248;2023-12-22T13:32:56;4.50;;;1.30;;
43670;SDS011;29267;50.906;7.248;2023-12-22T13:35:22;7.47;;;1.55;;
43670;SDS011;29267;50.906;7.248;2023-12-22T13:37:49;2.08;;;1.05;;
43670;SDS011;29267;50.906;7.248;2023-12-22T13:40:15;7.75;;;1.25;;
43670;SDS011;29267;50.906;7.248;2023-12-22T13:42:41;13.32;;;1.58;;
43670;SDS011;29267;50.906;7.248;2023-12-22T13:45:11;3.28;;;1.40;;
43670;SDS011;29267;50.906;7.248;2023-12-22T13:47:40;4.40;;;1.20;;
43670;SDS011;29267;50.906;7.248;2023-12-22T13:50:13;4.88;;;1.27;;
43670;SDS011;29267;50.906;7.248;2023-12-22T13:52:40;5.82;;;1.83;;
43670;SDS011;29267;50.906;7.248;2023-12-22T13:55:15;5.18;;;1.55;;
43670;SDS011;29267;50.906;7.248;2023-12-22T13:57:41;4.13;;;1.73;;
43670;SDS011;29267;50.906;7.248;2023-12-22T14:02:45;6.45;;;1.50;;
43670;SDS011;29267;50.906;7.248;2023-12-22T14:05:11;8.45;;;1.50;;
43670;SDS011;29267;50.906;7.248;2023-12-22T14:07:37;5.13;;;1.77;;
43670;SDS011;29267;50.906;7.248;2023-12-22T14:10:08;6.70;;;1.15;;
43670;SDS011;29267;50.906;7.248;2023-12-22T14:12:35;9.77;;;1.52;;
43670;SDS011;29267;50.906;7.248;2023-12-22T14:15:03;6.28;;;1.50;;
43670;SDS011;29267;50.906;7.248;2023-12-22T14:17:32;5.72;;;1.50;;
43670;SDS011;29267;50.906;7.248;2023-12-22T14:19:57;4.10;;;0.77;;
43670;SDS011;29267;50.906;7.248;2023-12-22T14:22:23;6.18;;;1.73;;
43670;SDS011;29267;50.906;7.248;2023-12-22T14:24:49;4.95;;;1.35;;
43670;SDS011;29267;50.906;7.248;2023-12-22T14:27:15;8.35;;;1.60;;
43670;SDS011;29267;50.906;7.248;2023-12-22T14:29:43;5.78;;;1.70;;
43670;SDS011;29267;50.906;7.248;2023-12-22T14:32:09;3.60;;;1.20;;
43670;SDS011;29267;50.906;7.248;2023-12-22T14:34:37;2.58;;;0.90;;
43670;SDS011;29267;50.906;7.248;2023-12-22T14:37:02;1.67;;;1.00;;
43670;SDS011;29267;50.906;7.248;2023-12-22T14:39:28;5.78;;;1.38;;
43670;SDS011;29267;50.906;7.248;2023-12-22T14:41:54;6.40;;;2.05;;
43670;SDS011;29267;50.906;7.248;2023-12-22T14:44:19;4.13;;;2.22;;
43670;SDS011;29267;50.906;7.248;2023-12-22T14:46:45;6.78;;;1.65;;
43670;SDS011;29267;50.906;7.248;2023-12-22T14:49:11;7.13;;;1.83;;